Time;durP1;ratioP1;P1;durP2;ratioP2;P2;SDS_P1;SDS_P2;PMS_P1;PMS_P2;Temp;Humidity;BMP_temperature;BMP_pressure;BME280_temperature;BME280_humidity;BME280_pressure;Samples;Min_cycle;Max_cycle;Signal;HPM_P1;HPM_P2
2020/12/20 05:03:05;;;;;;;19.58;10.50;;;3.20;99.90;;;;;;5083151;23;93385;-80
2020/12/20 05:05:31;;;;;;;21.10;11.20;;;3.20;99.90;;;;;;4936367;28;92069;-82
2020/12/20 05:07:57;;;;;;;20.35;11.82;;;3.20;99.90;;;;;;4940673;28;92881;-80
2020/12/20 05:10:38;;;;;;;25.40;11.77;;;3.20;99.90;;;;;;4943482;28;94728;-78
2020/12/20 05:13:04;;;;;;;20.65;11.38;;;3.10;99.90;;;;;;4947426;28;91778;-79
2020/12/20 05:15:30;;;;;;;21.48;11.93;;;3.10;99.90;;;;;;4947918;28;91957;-80
2020/12/20 05:18:13;;;;;;;19.80;11.10;;;3.00;99.90;;;;;;4942170;28;91935;-79
2020/12/20 05:20:39;;;;;;;21.95;11.68;;;3.00;99.90;;;;;;4932868;28;94338;-78
2020/12/20 05:23:06;;;;;;;20.58;11.85;;;3.00;99.90;;;;;;4949929;28;92629;-78
2020/12/20 05:25:33;;;;;;;27.33;12.32;;;3.00;99.90;;;;;;4944545;28;91018;-80
2020/12/20 05:28:10;;;;;;;33.38;13.23;;;3.00;99.90;;;;;;4931992;28;92666;-80
2020/12/20 05:30:36;;;;;;;23.98;11.65;;;3.00;99.90;;;;;;4938270;28;92021;-80
2020/12/20 05:33:03;;;;;;;20.55;11.30;;;3.10;99.90;;;;;;4942350;28;92880;-78
2020/12/20 05:35:29;;;;;;;25.02;12.40;;;3.10;99.90;;;;;;4931929;28;92042;-80
2020/12/20 05:37:55;;;;;;;28.13;11.70;;;3.00;99.90;;;;;;4924526;28;92292;-80
2020/12/20 05:40:35;;;;;;;24.48;12.85;;;3.00;99.90;;;;;;4938291;28;92134;-79
2020/12/20 05:43:02;;;;;;;22.88;11.25;;;3.00;99.90;;;;;;4934044;28;91945;-79
2020/12/20 05:45:31;;;;;;;26.67;12.50;;;3.00;99.90;;;;;;4942383;28;92024;-80
2020/12/20 05:47:57;;;;;;;29.17;12.90;;;3.10;99.90;;;;;;4943806;28;92524;-80
2020/12/20 05:50:28;;;;;;;24.63;11.32;;;3.10;99.90;;;;;;4943133;28;91222;-80
2020/12/20 05:53:04;;;;;;;;;;;3.20;99.90;;;;;;4935184;28;91807;-79
2020/12/20 05:55:40;;;;;;;23.77;11.68;;;3.20;99.90;;;;;;4940654;28;91236;-80
2020/12/20 05:58:13;;;;;;;25.23;12.10;;;3.20;99.90;;;;;;4935451;28;92739;-80
2020/12/20 06:00:41;;;;;;;22.95;11.65;;;3.30;99.90;;;;;;4938449;28;93415;-79
2020/12/20 06:03:07;;;;;;;27.63;13.35;;;3.20;99.90;;;;;;4939788;28;92213;-79
2020/12/20 06:05:35;;;;;;;23.70;11.55;;;3.30;99.90;;;;;;4949876;28;91879;-80
2020/12/20 06:08:06;;;;;;;23.25;12.10;;;3.30;99.90;;;;;;4945542;28;92116;-80
2020/12/20 06:10:34;;;;;;;;;;;3.30;99.90;;;;;;4940173;28;92097;-80
2020/12/20 06:13:03;;;;;;;22.50;11.68;;;3.30;99.90;;;;;;4945140;28;92039;-80
2020/12/20 06:15:32;;;;;;;24.83;11.38;;;3.20;99.90;;;;;;4946528;28;91076;-79
2020/12/20 06:18:03;;;;;;;25.15;12.82;;;3.10;99.90;;;;;;4944814;28;92608;-79
2020/12/20 06:20:30;;;;;;;19.90;11.07;;;3.10;99.90;;;;;;4936747;28;91338;-79
2020/12/20 06:22:56;;;;;;;29.45;12.05;;;3.10;99.90;;;;;;4937772;28;92817;-78
2020/12/20 06:25:24;;;;;;;25.65;12.15;;;3.10;99.90;;;;;;4933139;28;91843;-79
2020/12/20 06:27:51;;;;;;;24.45;12.27;;;3.10;99.90;;;;;;4943855;28;92150;-80
2020/12/20 06:30:20;;;;;;;30.08;13.25;;;3.10;99.90;;;;;;4946097;28;91992;-82
2020/12/20 06:32:51;;;;;;;26.27;12.48;;;3.10;99.90;;;;;;4930278;28;91232;-79
2020/12/20 06:35:27;;;;;;;;;;;3.30;99.90;;;;;;4944062;28;92093;-80
2020/12/20 06:37:54;;;;;;;33.00;13.93;;;3.30;99.90;;;;;;4949672;28;92828;-80
2020/12/20 06:40:31;;;;;;;34.08;12.88;;;3.30;99.90;;;;;;4949780;28;91153;-79
2020/12/20 06:42:58;;;;;;;31.13;15.10;;;3.30;99.90;;;;;;4941098;28;92123;-80
2020/12/20 06:45:27;;;;;;;38.67;13.32;;;3.40;99.90;;;;;;4942105;28;92185;-80
2020/12/20 06:48:00;;;;;;;25.65;11.85;;;3.40;99.90;;;;;;4936895;28;94539;-79
2020/12/20 06:50:50;;;;;;;33.15;13.57;;;3.50;99.90;;;;;;4940553;28;92199;-80
2020/12/20 06:53:17;;;;;;;44.17;12.82;;;3.50;99.90;;;;;;4947323;28;91736;-79
2020/12/20 06:55:44;;;;;;;29.63;12.25;;;3.60;99.90;;;;;;4946889;28;91907;-78
2020/12/20 06:58:11;;;;;;;30.52;11.70;;;3.60;99.90;;;;;;4942202;28;92786;-79
2020/12/20 07:00:48;;;;;;;18.40;11.00;;;3.70;99.90;;;;;;4935742;28;92093;-78
2020/12/20 07:03:20;;;;;;;19.92;10.88;;;3.80;99.90;;;;;;4931663;28;92326;-78
2020/12/20 07:05:48;;;;;;;18.55;10.32;;;3.70;99.90;;;;;;4938329;28;90991;-79
2020/12/20 07:08:30;;;;;;;17.40;10.45;;;3.70;99.90;;;;;;4933923;28;93881;-80
2020/12/20 07:10:59;;;;;;;19.55;10.77;;;3.60;99.90;;;;;;4937028;28;92358;-80
2020/12/20 07:13:41;;;;;;;16.63;10.00;;;3.60;99.90;;;;;;4945266;28;92763;-79
2020/12/20 07:16:08;;;;;;;18.52;10.30;;;3.50;99.90;;;;;;4937097;28;91983;-81
2020/12/20 07:18:40;;;;;;;17.60;10.38;;;3.50;99.90;;;;;;4937535;28;92283;-79
2020/12/20 07:21:08;;;;;;;23.30;11.05;;;3.40;99.90;;;;;;4942117;28;92058;-82
2020/12/20 07:23:34;;;;;;;16.88;10.63;;;3.30;99.90;;;;;;4944247;28;91962;-80
2020/12/20 07:26:00;;;;;;;15.13;9.27;;;3.30;99.90;;;;;;4944894;28;92165;-79
2020/12/20 07:28:26;;;;;;;15.27;9.27;;;3.30;99.90;;;;;;4936335;28;92193;-78
2020/12/20 07:30:51;;;;;;;14.88;8.82;;;3.30;99.90;;;;;;4932947;28;91812;-79
2020/12/20 07:33:18;;;;;;;23.77;9.70;;;3.20;99.90;;;;;;4952131;28;91579;-79
2020/12/20 07:35:48;;;;;;;16.35;9.43;;;3.10;99.90;;;;;;4930472;28;92495;-81
2020/12/20 07:38:14;;;;;;;20.75;9.65;;;3.00;99.90;;;;;;4938503;28;93149;-79
2020/12/20 07:40:40;;;;;;;13.07;9.90;;;3.00;99.90;;;;;;4938867;28;92966;-80
2020/12/20 07:43:06;;;;;;;17.30;9.70;;;3.00;99.90;;;;;;4944830;28;92482;-78
2020/12/20 07:45:33;;;;;;;14.75;9.27;;;2.90;99.90;;;;;;4947588;28;91817;-78
2020/12/20 07:47:58;;;;;;;34.35;11.23;;;2.80;99.90;;;;;;4937252;28;91930;-79
2020/12/20 07:50:25;;;;;;;14.23;9.15;;;2.80;99.90;;;;;;4928160;28;92999;-80
2020/12/20 07:52:51;;;;;;;25.45;10.60;;;2.80;99.90;;;;;;4940955;28;92005;-79
2020/12/20 07:55:17;;;;;;;18.77;10.18;;;2.80;99.90;;;;;;4950509;28;91044;-79
2020/12/20 07:57:48;;;;;;;17.45;11.20;;;2.90;99.90;;;;;;4938814;28;91717;-79
2020/12/20 08:00:15;;;;;;;15.80;9.90;;;2.90;99.90;;;;;;4942399;28;92477;-79
2020/12/20 08:02:40;;;;;;;15.65;9.48;;;2.80;99.90;;;;;;4940413;28;92920;-79
2020/12/20 08:05:10;;;;;;;14.32;9.20;;;2.80;99.90;;;;;;4930177;28;91992;-79
2020/12/20 08:07:37;;;;;;;17.90;9.52;;;2.80;99.90;;;;;;4939631;28;92778;-80
2020/12/20 08:10:04;;;;;;;14.00;8.68;;;2.80;99.90;;;;;;4939758;28;93178;-79
2020/12/20 08:12:32;;;;;;;26.20;11.98;;;2.80;99.90;;;;;;4940882;28;91733;-79
2020/12/20 08:15:06;;;;;;;14.93;9.50;;;2.80;99.90;;;;;;4941597;28;91722;-79
2020/12/20 08:17:32;;;;;;;16.20;9.98;;;2.90;99.90;;;;;;4942674;28;91979;-78
2020/12/20 08:20:04;;;;;;;23.58;10.45;;;2.90;99.90;;;;;;4948056;28;91440;-79
2020/12/20 08:22:32;;;;;;;18.00;9.27;;;2.90;99.90;;;;;;4939542;28;92005;-79
2020/12/20 08:25:06;;;;;;;17.17;8.95;;;2.90;99.90;;;;;;4947657;28;92169;-80
2020/12/20 08:27:34;;;;;;;32.78;12.45;;;2.90;99.90;;;;;;4935346;28;92945;-79
2020/12/20 08:30:04;;;;;;;27.60;11.18;;;3.00;99.90;;;;;;4941553;28;92203;-78
2020/12/20 08:32:41;;;;;;;18.35;10.18;;;3.10;99.90;;;;;;4943884;28;92053;-80
2020/12/20 08:35:14;;;;;;;21.50;10.07;;;3.10;99.90;;;;;;4939866;28;91658;-77
2020/12/20 08:37:42;;;;;;;16.10;9.18;;;3.20;99.90;;;;;;4934373;28;92250;-79
2020/12/20 08:40:12;;;;;;;19.38;9.73;;;3.30;99.90;;;;;;4944643;28;92195;-80
2020/12/20 08:42:38;;;;;;;20.10;10.38;;;3.30;99.90;;;;;;4947836;28;91166;-80
2020/12/20 08:45:18;;;;;;;20.33;9.90;;;3.40;99.90;;;;;;4942740;28;91305;-80
2020/12/20 08:47:45;;;;;;;18.10;10.35;;;3.60;99.90;;;;;;4926520;28;91896;-81
2020/12/20 08:50:12;;;;;;;17.52;10.05;;;3.50;99.90;;;;;;4944394;28;91751;-80
2020/12/20 08:52:38;;;;;;;15.75;9.93;;;3.50;99.90;;;;;;4952035;28;94195;-83
2020/12/20 08:55:06;;;;;;;18.52;9.88;;;3.50;99.90;;;;;;4949292;28;91534;-81
2020/12/20 08:57:33;;;;;;;17.83;9.85;;;3.60;99.90;;;;;;4954702;28;93143;-79
2020/12/20 09:00:10;;;;;;;17.23;10.45;;;3.60;99.90;;;;;;4929442;28;92273;-80
2020/12/20 09:02:36;;;;;;;18.20;10.40;;;3.80;99.90;;;;;;4944962;28;91846;-81
2020/12/20 09:05:15;;;;;;;16.70;8.77;;;3.80;99.90;;;;;;4944183;28;92061;-80
2020/12/20 09:07:44;;;;;;;17.80;11.40;;;3.90;99.90;;;;;;4944955;28;92697;-79
2020/12/20 09:10:17;;;;;;;16.08;9.48;;;4.00;99.90;;;;;;4941592;28;92019;-84
2020/12/20 09:12:48;;;;;;;18.80;10.82;;;4.10;99.90;;;;;;4939882;28;91996;-80
2020/12/20 09:15:14;;;;;;;18.30;10.40;;;4.20;99.90;;;;;;4938267;28;92497;-79
2020/12/20 09:17:45;;;;;;;18.65;11.13;;;4.30;99.90;;;;;;4931675;28;93122;-81
2020/12/20 09:20:14;;;;;;;17.10;9.88;;;4.40;99.90;;;;;;4938539;28;94151;-81
2020/12/20 09:22:42;;;;;;;18.15;10.35;;;4.50;99.90;;;;;;4944970;28;91231;-81
2020/12/20 09:25:08;;;;;;;16.23;10.73;;;4.60;99.90;;;;;;4943823;28;91913;-80
2020/12/20 09:27:34;;;;;;;21.48;11.88;;;4.70;99.90;;;;;;4947884;28;92316;-80
2020/12/20 09:30:02;;;;;;;18.02;11.27;;;4.90;99.90;;;;;;4941419;28;92000;-80
2020/12/20 09:32:35;;;;;;;14.13;9.30;;;5.00;99.90;;;;;;4951555;28;91535;-79
2020/12/20 09:35:06;;;;;;;14.73;9.30;;;5.20;99.90;;;;;;4948671;28;91385;-82
2020/12/20 09:37:40;;;;;;;17.02;9.80;;;5.30;99.90;;;;;;4941130;28;91658;-81
2020/12/20 09:40:07;;;;;;;15.98;9.73;;;5.50;99.90;;;;;;4942907;28;92640;-85
2020/12/20 09:42:37;;;;;;;13.23;8.48;;;5.80;99.90;;;;;;4944859;28;92760;-83
2020/12/20 09:45:04;;;;;;;15.45;9.55;;;6.00;99.90;;;;;;4944836;28;91669;-85
2020/12/20 09:47:30;;;;;;;14.50;9.85;;;6.10;99.90;;;;;;4935718;28;92072;-85
2020/12/20 09:49:55;;;;;;;14.63;9.57;;;6.20;99.90;;;;;;4939126;28;92066;-82
2020/12/20 09:52:21;;;;;;;15.65;10.10;;;6.30;99.90;;;;;;4932960;28;92071;-82
2020/12/20 09:54:47;;;;;;;15.52;9.95;;;6.40;99.90;;;;;;4941995;28;91734;-83
2020/12/20 09:57:12;;;;;;;30.52;19.67;;;6.40;99.90;;;;;;4942658;28;92827;-86
2020/12/20 09:59:38;;;;;;;28.73;21.20;;;6.30;99.90;;;;;;4944124;28;91884;-80
2020/12/20 10:02:04;;;;;;;27.83;15.32;;;6.30;99.90;;;;;;4941360;28;92074;-79
2020/12/20 10:04:34;;;;;;;20.20;13.85;;;6.30;99.90;;;;;;4943441;28;91265;-79
2020/12/20 10:07:00;;;;;;;23.52;14.68;;;6.30;99.90;;;;;;4941929;28;93366;-80
2020/12/20 10:09:26;;;;;;;19.88;11.93;;;6.20;99.90;;;;;;4942362;28;92859;-81
2020/12/20 10:11:51;;;;;;;17.48;12.13;;;6.10;99.80;;;;;;4942043;28;92128;-80
2020/12/20 10:14:17;;;;;;;17.45;10.75;;;6.10;99.90;;;;;;4944013;28;92436;-80
2020/12/20 10:16:43;;;;;;;16.10;10.82;;;6.00;99.90;;;;;;4943072;28;91693;-81
2020/12/20 10:19:09;;;;;;;17.85;11.02;;;5.90;99.90;;;;;;4941383;28;92402;-78
2020/12/20 10:21:34;;;;;;;17.35;10.90;;;5.90;99.90;;;;;;4940988;28;92188;-81
2020/12/20 10:24:00;;;;;;;18.80;10.75;;;5.90;99.90;;;;;;4934450;28;91890;-81
2020/12/20 10:26:26;;;;;;;19.27;11.45;;;5.90;99.90;;;;;;4936016;28;93327;-80
2020/12/20 10:28:52;;;;;;;17.98;11.52;;;5.80;99.90;;;;;;4940449;28;91199;-80
2020/12/20 10:31:21;;;;;;;21.25;12.50;;;5.80;99.90;;;;;;4934355;28;92955;-81
2020/12/20 10:33:47;;;;;;;20.90;12.02;;;5.80;99.90;;;;;;4941456;28;92127;-81
2020/12/20 10:36:13;;;;;;;19.25;12.13;;;5.80;99.90;;;;;;4942166;28;93398;-81
2020/12/20 10:38:39;;;;;;;23.17;14.65;;;5.80;99.90;;;;;;4936168;28;91775;-80
2020/12/20 10:41:05;;;;;;;18.35;11.45;;;5.80;99.90;;;;;;4935674;28;92028;-77
2020/12/20 10:43:30;;;;;;;18.58;11.57;;;5.80;99.90;;;;;;4941694;28;92366;-80
2020/12/20 10:45:56;;;;;;;20.35;11.27;;;5.70;99.90;;;;;;4938075;28;92072;-80
2020/12/20 10:48:22;;;;;;;17.40;11.35;;;5.70;99.90;;;;;;4939565;28;91576;-78
2020/12/20 10:50:48;;;;;;;17.38;10.18;;;5.80;99.90;;;;;;4943189;28;91787;-80
2020/12/20 10:53:13;;;;;;;22.35;12.43;;;5.80;99.90;;;;;;4923874;28;92057;-82
2020/12/20 10:55:40;;;;;;;20.48;12.02;;;5.70;99.90;;;;;;4941007;28;93229;-79
2020/12/20 10:58:07;;;;;;;20.00;11.32;;;5.60;99.90;;;;;;4942006;28;93266;-80
2020/12/20 11:00:33;;;;;;;20.90;12.38;;;5.70;99.90;;;;;;4941704;28;91306;-79
2020/12/20 11:02:59;;;;;;;19.58;12.98;;;5.80;99.90;;;;;;4939927;28;92071;-79
2020/12/20 11:05:25;;;;;;;19.70;11.40;;;5.90;99.90;;;;;;4937305;28;91787;-80
2020/12/20 11:07:51;;;;;;;22.63;13.15;;;5.90;99.90;;;;;;4951091;28;91916;-80
2020/12/20 11:10:18;;;;;;;27.25;13.52;;;6.00;99.90;;;;;;4954429;28;91209;-80
2020/12/20 11:12:43;;;;;;;23.52;13.48;;;6.10;99.90;;;;;;4955071;28;91344;-81
2020/12/20 11:15:09;;;;;;;25.17;13.43;;;6.10;99.90;;;;;;4951496;28;92250;-80
2020/12/20 11:17:35;;;;;;;20.63;12.77;;;6.10;99.90;;;;;;4950140;28;92808;-81
2020/12/20 11:20:00;;;;;;;21.38;12.45;;;6.10;99.90;;;;;;4938004;28;92700;-78
2020/12/20 11:22:26;;;;;;;21.67;13.00;;;6.10;99.90;;;;;;4935644;28;92117;-79
2020/12/20 11:24:52;;;;;;;23.15;13.35;;;6.10;99.90;;;;;;4938224;28;92197;-80
2020/12/20 11:27:17;;;;;;;22.70;13.77;;;6.10;99.90;;;;;;4938112;28;92142;-81
2020/12/20 11:29:43;;;;;;;23.08;14.70;;;6.20;99.90;;;;;;4941728;28;92088;-78
2020/12/20 11:32:08;;;;;;;21.58;13.18;;;6.20;99.90;;;;;;4937923;28;92032;-79
2020/12/20 11:34:34;;;;;;;35.92;18.83;;;;;;;;;;4940242;28;91990;-79
2020/12/20 11:37:00;;;;;;;37.85;19.27;;;6.40;99.90;;;;;;4940489;28;92005;-79
2020/12/20 11:39:26;;;;;;;25.58;14.77;;;6.50;99.90;;;;;;4922481;28;92409;-79
2020/12/20 11:41:52;;;;;;;27.35;16.17;;;6.60;99.90;;;;;;4921327;28;91867;-81
2020/12/20 11:44:17;;;;;;;24.08;14.32;;;6.70;99.90;;;;;;4939267;28;92899;-78
2020/12/20 11:46:43;;;;;;;21.75;13.40;;;6.70;99.70;;;;;;4936299;28;92210;-77
2020/12/20 11:49:09;;;;;;;21.05;13.30;;;6.80;99.40;;;;;;4933085;28;92254;-80
2020/12/20 11:51:34;;;;;;;18.88;11.85;;;6.90;99.50;;;;;;4937729;28;91929;-79
2020/12/20 11:54:00;;;;;;;22.55;13.95;;;6.80;97.60;;;;;;4940929;28;93221;-79
2020/12/20 11:56:26;;;;;;;22.27;13.32;;;6.80;98.80;;;;;;4938574;28;92256;-78
2020/12/20 11:58:52;;;;;;;20.30;12.38;;;6.80;98.80;;;;;;4943570;28;91476;-78
2020/12/20 12:01:26;;;;;;;22.67;13.50;;;6.90;97.70;;;;;;4945153;28;91074;-79
2020/12/20 12:03:52;;;;;;;22.63;13.93;;;6.90;98.10;;;;;;4941505;28;91739;-79
2020/12/20 12:06:18;;;;;;;23.15;14.57;;;6.90;98.40;;;;;;4946100;28;92082;-80
2020/12/20 12:08:45;;;;;;;21.73;14.00;;;7.00;98.40;;;;;;4945027;28;92701;-77
2020/12/20 12:11:20;;;;;;;26.33;16.08;;;7.10;98.30;;;;;;4943210;28;92093;-79
2020/12/20 12:13:47;;;;;;;25.15;14.85;;;7.10;97.80;;;;;;4943275;28;92387;-79
2020/12/20 12:16:20;;;;;;;23.38;15.02;;;7.10;98.10;;;;;;4944743;28;92915;-78
2020/12/20 12:18:47;;;;;;;25.42;15.23;;;7.10;97.90;;;;;;4942255;28;91631;-79
2020/12/20 12:21:16;;;;;;;24.48;15.48;;;7.10;98.50;;;;;;4940218;28;92083;-79
2020/12/20 12:23:45;;;;;;;22.70;14.65;;;7.00;98.40;;;;;;4923362;28;94211;-79
2020/12/20 12:26:12;;;;;;;27.40;16.85;;;7.10;98.50;;;;;;4942935;28;91306;-79
2020/12/20 12:28:38;;;;;;;25.25;16.10;;;7.10;98.60;;;;;;4943147;28;92184;-79
2020/12/20 12:31:04;;;;;;;28.33;18.10;;;7.00;98.50;;;;;;4948882;28;92162;-79
2020/12/20 12:33:29;;;;;;;28.80;18.63;;;6.90;98.90;;;;;;4936493;28;92692;-78
2020/12/20 12:35:55;;;;;;;28.33;17.88;;;6.90;99.10;;;;;;4921350;28;93521;-79
2020/12/20 12:38:21;;;;;;;26.00;16.98;;;6.90;99.20;;;;;;4937495;28;92018;-76
2020/12/20 12:40:47;;;;;;;24.92;15.63;;;6.80;99.60;;;;;;4943088;28;92181;-79
2020/12/20 12:43:12;;;;;;;23.70;14.70;;;6.80;99.40;;;;;;4938655;28;93110;-77
2020/12/20 12:45:38;;;;;;;24.60;15.10;;;6.80;99.20;;;;;;4947402;28;91514;-80
2020/12/20 12:48:07;;;;;;;22.05;14.65;;;6.90;99.30;;;;;;4939723;28;92147;-79
2020/12/20 12:50:34;;;;;;;20.77;14.18;;;6.90;99.00;;;;;;4944122;28;92207;-77
2020/12/20 12:53:00;;;;;;;25.63;16.35;;;6.80;99.20;;;;;;4937465;28;91935;-81
2020/12/20 12:55:28;;;;;;;24.90;15.05;;;6.80;99.50;;;;;;4945513;28;92155;-80
2020/12/20 12:57:55;;;;;;;24.23;14.88;;;6.70;99.50;;;;;;4940703;28;92707;-80
2020/12/20 13:00:20;;;;;;;24.73;16.10;;;6.70;99.40;;;;;;4941139;28;91851;-84
2020/12/20 13:02:46;;;;;;;28.38;18.15;;;6.70;99.40;;;;;;4939953;28;92259;-81
2020/12/20 13:05:12;;;;;;;21.63;14.90;;;6.70;99.90;;;;;;4942396;28;92230;-79
2020/12/20 13:07:37;;;;;;;24.02;16.00;;;6.70;99.90;;;;;;4943728;28;92057;-80
2020/12/20 13:10:03;;;;;;;19.52;13.98;;;6.70;99.70;;;;;;4943560;28;91972;-77
2020/12/20 13:12:29;;;;;;;24.65;16.20;;;6.70;99.80;;;;;;4942275;28;92357;-78
2020/12/20 13:14:54;;;;;;;20.38;13.70;;;6.70;99.80;;;;;;4935363;28;91426;-78
2020/12/20 13:17:20;;;;;;;18.33;12.93;;;6.80;99.80;;;;;;4941851;28;91983;-78
2020/12/20 13:19:46;;;;;;;21.40;14.23;;;6.80;99.80;;;;;;4933369;28;92144;-79
2020/12/20 13:22:12;;;;;;;23.20;14.95;;;6.80;99.70;;;;;;4938510;28;93829;-79
2020/12/20 13:24:37;;;;;;;23.40;15.35;;;6.90;99.50;;;;;;4939991;28;93158;-80
2020/12/20 13:27:03;;;;;;;23.00;15.80;;;6.80;99.30;;;;;;4936660;28;92096;-77
2020/12/20 13:29:29;;;;;;;22.90;15.02;;;6.70;99.40;;;;;;4940815;28;92143;-78
2020/12/20 13:31:54;;;;;;;21.50;14.70;;;6.70;99.50;;;;;;4942976;28;92339;-79
2020/12/20 13:34:20;;;;;;;21.55;13.50;;;6.60;99.20;;;;;;4943429;28;91834;-77
2020/12/20 13:36:46;;;;;;;18.92;13.90;;;6.60;99.50;;;;;;4942077;28;92078;-80
2020/12/20 13:39:11;;;;;;;21.45;15.23;;;6.60;98.80;;;;;;4941411;28;91530;-78
2020/12/20 13:41:37;;;;;;;24.20;16.33;;;6.60;99.10;;;;;;4947667;28;92037;-77
2020/12/20 13:44:03;;;;;;;23.27;15.93;;;6.50;99.20;;;;;;4942795;28;92313;-79
2020/12/20 13:46:28;;;;;;;20.63;14.15;;;6.50;99.30;;;;;;4945275;28;93078;-78
2020/12/20 13:48:54;;;;;;;21.25;14.13;;;6.50;99.10;;;;;;4950130;28;92723;-78
2020/12/20 13:51:20;;;;;;;21.48;13.90;;;6.40;99.40;;;;;;4939797;28;93458;-77
2020/12/20 13:53:45;;;;;;;21.30;14.48;;;6.30;99.90;;;;;;4938397;28;92018;-77
2020/12/20 13:56:11;;;;;;;20.60;13.02;;;6.20;99.90;;;;;;4943335;28;91889;-76
2020/12/20 13:58:38;;;;;;;19.55;12.65;;;6.20;99.90;;;;;;4938326;28;92228;-77
2020/12/20 14:01:04;;;;;;;18.08;13.63;;;6.20;99.90;;;;;;4939867;28;92247;-77
2020/12/20 14:03:29;;;;;;;20.92;13.55;;;6.20;99.90;;;;;;4935395;28;92077;-79
2020/12/20 14:05:55;;;;;;;20.58;14.00;;;6.20;99.90;;;;;;4943705;28;91862;-77
2020/12/20 14:08:21;;;;;;;23.67;15.07;;;6.20;99.90;;;;;;4937548;28;91990;-79
2020/12/20 14:10:47;;;;;;;21.67;14.38;;;6.10;99.90;;;;;;4940491;28;93235;-79
2020/12/20 14:13:12;;;;;;;23.42;15.32;;;6.00;99.90;;;;;;4938598;28;93049;-78
2020/12/20 14:15:38;;;;;;;24.75;15.68;;;6.00;99.90;;;;;;4942633;28;91848;-79
2020/12/20 14:18:04;;;;;;;23.52;15.75;;;6.00;99.90;;;;;;4939410;28;91655;-78
2020/12/20 14:20:29;;;;;;;19.23;14.38;;;5.90;99.90;;;;;;4925060;28;93490;-79
2020/12/20 14:22:55;;;;;;;21.30;15.00;;;5.80;99.90;;;;;;4939053;28;91669;-79
2020/12/20 14:25:21;;;;;;;22.35;14.82;;;5.80;99.90;;;;;;4939194;28;91855;-79
2020/12/20 14:27:46;;;;;;;22.20;16.65;;;5.80;99.90;;;;;;4935040;28;91471;-80
2020/12/20 14:30:12;;;;;;;25.45;15.95;;;5.80;99.90;;;;;;4936539;28;92006;-78
2020/12/20 14:32:38;;;;;;;23.20;14.70;;;5.80;99.90;;;;;;4940913;28;92079;-78
2020/12/20 14:35:05;;;;;;;23.73;14.55;;;5.80;99.90;;;;;;4943562;28;92964;-77
2020/12/20 14:37:34;;;;;;;21.55;14.00;;;5.70;99.90;;;;;;4944353;28;92200;-79
2020/12/20 14:40:00;;;;;;;22.17;14.55;;;5.70;99.90;;;;;;4937465;28;92105;-79
2020/12/20 14:42:25;;;;;;;20.20;13.90;;;5.40;99.90;;;;;;4941370;28;91864;-79
2020/12/20 14:44:52;;;;;;;22.42;14.90;;;5.30;99.90;;;;;;4942969;28;91946;-79
2020/12/20 14:47:19;;;;;;;21.02;14.43;;;5.20;99.90;;;;;;4938791;28;91737;-77
2020/12/20 14:49:45;;;;;;;20.80;13.52;;;5.20;99.90;;;;;;4940368;28;92292;-77
2020/12/20 14:52:10;;;;;;;23.60;14.18;;;5.10;99.90;;;;;;4941427;28;91427;-78
2020/12/20 14:54:36;;;;;;;22.98;14.80;;;5.00;99.90;;;;;;4944266;28;91918;-78
2020/12/20 14:57:02;;;;;;;21.83;14.95;;;4.90;99.90;;;;;;4943155;28;92018;-79
2020/12/20 14:59:27;;;;;;;21.88;13.02;;;4.80;99.90;;;;;;4945051;28;92832;-78
2020/12/20 15:01:53;;;;;;;22.85;14.30;;;4.80;99.90;;;;;;4938170;28;92317;-78
2020/12/20 15:04:20;;;;;;;18.50;12.05;;;4.70;99.90;;;;;;4943934;28;91843;-77
2020/12/20 15:06:46;;;;;;;22.67;14.18;;;4.70;99.90;;;;;;4943560;28;92084;-79
2020/12/20 15:09:13;;;;;;;23.20;14.85;;;4.60;99.90;;;;;;4942379;28;91990;-78
2020/12/20 15:11:39;;;;;;;24.92;15.38;;;4.60;99.90;;;;;;4935311;28;92445;-78
2020/12/20 15:14:06;;;;;;;27.45;16.85;;;4.60;99.90;;;;;;4940234;28;91868;-79
2020/12/20 15:16:32;;;;;;;34.00;18.48;;;4.60;99.90;;;;;;4942680;28;91461;-78
2020/12/20 15:18:58;;;;;;;30.88;14.95;;;;;;;;;;4940167;28;92256;-78
2020/12/20 15:21:24;;;;;;;29.95;15.65;;;4.20;99.90;;;;;;4940385;28;92290;-78
2020/12/20 15:23:50;;;;;;;35.65;17.90;;;4.20;99.90;;;;;;4944990;28;92947;-77
2020/12/20 15:26:20;;;;;;;36.75;18.27;;;4.10;99.90;;;;;;4941895;28;92021;-77
2020/12/20 15:28:46;;;;;;;35.80;17.40;;;4.10;99.90;;;;;;4938603;28;92212;-78
2020/12/20 15:31:12;;;;;;;33.03;18.45;;;4.10;99.90;;;;;;4941372;28;91893;-77
2020/12/20 15:33:38;;;;;;;31.33;15.85;;;4.10;99.90;;;;;;4935895;28;91924;-79
2020/12/20 15:36:05;;;;;;;34.10;17.98;;;4.00;99.90;;;;;;4939597;28;92195;-79
2020/12/20 15:38:30;;;;;;;31.95;16.58;;;4.00;99.90;;;;;;4937783;28;92007;-80
2020/12/20 15:40:56;;;;;;;32.83;17.48;;;4.00;99.90;;;;;;4940783;28;91206;-80
2020/12/20 15:43:22;;;;;;;36.42;18.10;;;3.90;99.90;;;;;;4941217;28;92067;-79
2020/12/20 15:45:48;;;;;;;29.27;17.45;;;3.90;99.90;;;;;;4936344;28;91979;-80
2020/12/20 15:48:14;;;;;;;28.67;14.60;;;4.00;99.90;;;;;;4939530;28;93095;-80
2020/12/20 15:50:41;;;;;;;32.63;17.40;;;3.90;99.90;;;;;;4940644;28;93305;-79
2020/12/20 15:53:08;;;;;;;30.27;16.40;;;3.90;99.90;;;;;;4940727;28;91775;-79
2020/12/20 15:55:34;;;;;;;29.33;16.20;;;3.90;99.90;;;;;;4942009;28;92251;-78
2020/12/20 15:57:59;;;;;;;28.65;15.63;;;4.00;99.90;;;;;;4948528;28;92123;-77
2020/12/20 16:00:25;;;;;;;32.83;18.00;;;4.00;99.90;;;;;;4941362;28;92100;-79
2020/12/20 16:02:52;;;;;;;31.20;17.20;;;4.10;99.90;;;;;;4938913;28;92083;-78
2020/12/20 16:05:18;;;;;;;33.38;18.27;;;4.20;99.90;;;;;;4921957;28;91417;-80
2020/12/20 16:07:43;;;;;;;32.42;16.90;;;4.30;99.90;;;;;;4940233;28;92265;-78
2020/12/20 16:10:09;;;;;;;27.15;14.98;;;4.30;99.90;;;;;;4939367;28;92039;-79
2020/12/20 16:12:35;;;;;;;33.45;18.60;;;4.40;99.90;;;;;;4939379;28;93030;-78
2020/12/20 16:15:00;;;;;;;31.50;18.15;;;4.40;99.90;;;;;;4936102;28;91698;-79
2020/12/20 16:17:26;;;;;;;33.85;18.95;;;4.40;99.90;;;;;;4936962;28;92305;-77
2020/12/20 16:19:52;;;;;;;29.83;17.38;;;4.40;99.90;;;;;;4940326;28;92047;-78
2020/12/20 16:22:18;;;;;;;29.05;15.68;;;4.50;99.90;;;;;;4932987;28;92446;-77
2020/12/20 16:24:44;;;;;;;30.48;15.45;;;4.50;99.90;;;;;;4939126;28;92092;-78
2020/12/20 16:27:09;;;;;;;33.95;17.13;;;4.40;99.90;;;;;;4937740;28;92813;-79
2020/12/20 16:29:35;;;;;;;30.75;16.65;;;4.40;99.90;;;;;;4938847;28;91943;-78
2020/12/20 16:32:01;;;;;;;35.63;18.90;;;4.40;99.90;;;;;;4944785;28;92094;-79
2020/12/20 16:34:29;;;;;;;34.90;19.42;;;4.20;99.90;;;;;;4941003;28;92380;-79
2020/12/20 16:36:57;;;;;;;38.53;19.10;;;4.20;99.90;;;;;;4938455;28;94126;-77
2020/12/20 16:39:23;;;;;;;33.88;17.77;;;4.10;99.90;;;;;;4941747;28;92161;-79
2020/12/20 16:41:50;;;;;;;37.72;18.23;;;4.10;99.90;;;;;;4941959;28;92409;-79
2020/12/20 16:44:17;;;;;;;37.60;19.73;;;4.10;99.90;;;;;;4939301;28;92041;-78
2020/12/20 16:46:45;;;;;;;29.75;16.30;;;4.00;99.90;;;;;;4940588;28;91650;-78
2020/12/20 16:49:11;;;;;;;33.13;16.70;;;3.90;99.90;;;;;;4938990;28;92164;-79
2020/12/20 16:51:41;;;;;;;34.20;17.23;;;3.80;99.90;;;;;;4942101;28;92072;-78
2020/12/20 16:54:08;;;;;;;34.10;18.58;;;3.90;99.90;;;;;;4943764;28;90961;-78
2020/12/20 16:56:35;;;;;;;31.52;16.88;;;3.90;99.90;;;;;;4941024;28;92436;-79
2020/12/20 16:59:02;;;;;;;36.03;17.38;;;3.80;99.90;;;;;;4947054;28;92051;-78
2020/12/20 17:01:27;;;;;;;38.72;18.48;;;3.70;99.90;;;;;;4944158;28;92895;-79
2020/12/20 17:03:54;;;;;;;36.17;17.85;;;3.70;99.90;;;;;;4940600;28;92032;-78
2020/12/20 17:06:21;;;;;;;33.88;17.85;;;3.80;99.90;;;;;;4942129;28;92170;-77
2020/12/20 17:08:47;;;;;;;37.38;17.90;;;3.70;99.90;;;;;;4941783;28;92519;-78
2020/12/20 17:11:15;;;;;;;34.88;16.88;;;3.70;99.90;;;;;;4938905;28;91332;-78
2020/12/20 17:13:45;;;;;;;39.88;18.50;;;3.60;99.90;;;;;;4942264;28;92255;-77
2020/12/20 17:16:12;;;;;;;29.98;15.85;;;3.60;99.90;;;;;;4940026;28;92726;-79
2020/12/20 17:18:38;;;;;;;36.63;17.30;;;3.60;99.90;;;;;;4936736;28;92063;-78
2020/12/20 17:21:05;;;;;;;29.65;15.38;;;3.50;99.90;;;;;;4944375;28;92132;-78
2020/12/20 17:23:31;;;;;;;32.97;17.15;;;3.50;99.90;;;;;;4937784;28;92040;-80
2020/12/20 17:25:57;;;;;;;37.33;17.70;;;3.40;99.90;;;;;;4943021;28;93047;-79
2020/12/20 17:28:23;;;;;;;27.33;15.27;;;3.30;99.90;;;;;;4938927;28;92228;-79
2020/12/20 17:30:49;;;;;;;28.92;14.50;;;3.30;99.90;;;;;;4938357;28;92511;-76
2020/12/20 17:33:15;;;;;;;31.15;16.33;;;3.30;99.90;;;;;;4938286;28;92202;-78
2020/12/20 17:35:43;;;;;;;35.30;18.23;;;3.30;99.90;;;;;;4942016;28;92413;-79
2020/12/20 17:38:08;;;;;;;36.53;18.05;;;3.30;99.90;;;;;;4937637;28;93206;-78
2020/12/20 17:40:34;;;;;;;32.75;17.02;;;3.40;99.90;;;;;;4942700;28;91935;-79
2020/12/20 17:43:02;;;;;;;30.15;16.10;;;3.30;99.90;;;;;;4938206;28;91380;-77